sensor_id;sensor_type;location;lat;lon;timestamp;P1;durP1;ratioP1;P2;durP2;ratioP2
5412;SDS011;2729;50.056;8.678;2023-07-28T00:02:19;1.93;;;1.83;;
5412;SDS011;2729;50.056;8.678;2023-07-28T00:04:45;2.37;;;2.17;;
5412;SDS011;2729;50.056;8.678;2023-07-28T00:07:10;1.70;;;1.60;;
5412;SDS011;2729;50.056;8.678;2023-07-28T00:09:36;2.20;;;2.03;;
5412;SDS011;2729;50.056;8.678;2023-07-28T00:12:02;4.17;;;2.00;;
5412;SDS011;2729;50.056;8.678;2023-07-28T00:14:27;2.40;;;2.20;;
5412;SDS011;2729;50.056;8.678;2023-07-28T00:16:54;6.67;;;2.73;;
5412;SDS011;2729;50.056;8.678;2023-07-28T00:19:20;2.50;;;2.30;;
5412;SDS011;2729;50.056;8.678;2023-07-28T00:21:49;3.23;;;2.47;;
5412;SDS011;2729;50.056;8.678;2023-07-28T00:24:15;4.00;;;2.13;;
5412;SDS011;2729;50.056;8.678;2023-07-28T00:26:41;4.90;;;2.70;;
5412;SDS011;2729;50.056;8.678;2023-07-28T00:29:06;4.57;;;2.20;;
5412;SDS011;2729;50.056;8.678;2023-07-28T00:31:34;3.03;;;2.50;;
5412;SDS011;2729;50.056;8.678;2023-07-28T00:34:01;2.43;;;2.30;;
5412;SDS011;2729;50.056;8.678;2023-07-28T00:36:26;2.00;;;1.90;;
5412;SDS011;2729;50.056;8.678;2023-07-28T00:38:52;2.57;;;2.37;;
5412;SDS011;2729;50.056;8.678;2023-07-28T00:41:18;2.97;;;2.47;;
5412;SDS011;2729;50.056;8.678;2023-07-28T00:43:43;2.10;;;2.00;;
5412;SDS011;2729;50.056;8.678;2023-07-28T00:46:12;2.63;;;2.43;;
5412;SDS011;2729;50.056;8.678;2023-07-28T00:48:38;2.77;;;2.57;;
5412;SDS011;2729;50.056;8.678;2023-07-28T00:51:04;2.07;;;1.97;;
5412;SDS011;2729;50.056;8.678;2023-07-28T00:53:31;2.57;;;2.37;;
5412;SDS011;2729;50.056;8.678;2023-07-28T00:55:56;2.37;;;2.17;;
5412;SDS011;2729;50.056;8.678;2023-07-28T00:58:22;3.23;;;2.80;;
5412;SDS011;2729;50.056;8.678;2023-07-28T01:00:48;2.27;;;2.07;;
5412;SDS011;2729;50.056;8.678;2023-07-28T01:03:14;3.30;;;2.50;;
5412;SDS011;2729;50.056;8.678;2023-07-28T01:05:52;3.70;;;2.13;;
5412;SDS011;2729;50.056;8.678;2023-07-28T01:08:23;3.20;;;2.90;;
5412;SDS011;2729;50.056;8.678;2023-07-28T01:10:50;2.60;;;2.40;;
5412;SDS011;2729;50.056;8.678;2023-07-28T01:13:17;5.30;;;2.60;;
5412;SDS011;2729;50.056;8.678;2023-07-28T01:15:43;3.07;;;2.87;;
5412;SDS011;2729;50.056;8.678;2023-07-28T01:18:09;3.00;;;2.47;;
5412;SDS011;2729;50.056;8.678;2023-07-28T01:20:35;7.23;;;2.70;;
5412;SDS011;2729;50.056;8.678;2023-07-28T01:23:13;2.77;;;2.57;;
5412;SDS011;2729;50.056;8.678;2023-07-28T01:28:25;4.70;;;2.60;;
5412;SDS011;2729;50.056;8.678;2023-07-28T01:30:51;3.53;;;2.83;;
5412;SDS011;2729;50.056;8.678;2023-07-28T01:33:17;2.40;;;2.20;;
5412;SDS011;2729;50.056;8.678;2023-07-28T01:35:43;5.87;;;2.30;;
5412;SDS011;2729;50.056;8.678;2023-07-28T01:38:08;2.47;;;2.27;;
5412;SDS011;2729;50.056;8.678;2023-07-28T01:40:34;2.73;;;2.53;;
5412;SDS011;2729;50.056;8.678;2023-07-28T01:42:59;2.67;;;2.47;;
5412;SDS011;2729;50.056;8.678;2023-07-28T01:45:25;2.50;;;2.30;;
5412;SDS011;2729;50.056;8.678;2023-07-28T01:47:50;2.77;;;2.57;;
5412;SDS011;2729;50.056;8.678;2023-07-28T01:50:18;2.63;;;2.43;;
5412;SDS011;2729;50.056;8.678;2023-07-28T01:52:44;5.60;;;2.10;;
5412;SDS011;2729;50.056;8.678;2023-07-28T01:55:09;3.23;;;2.40;;
5412;SDS011;2729;50.056;8.678;2023-07-28T01:57:38;2.87;;;2.57;;
5412;SDS011;2729;50.056;8.678;2023-07-28T02:00:04;3.00;;;2.47;;
5412;SDS011;2729;50.056;8.678;2023-07-28T02:02:38;3.53;;;2.80;;
5412;SDS011;2729;50.056;8.678;2023-07-28T02:05:04;2.70;;;2.50;;
5412;SDS011;2729;50.056;8.678;2023-07-28T02:07:30;2.10;;;1.90;;
5412;SDS011;2729;50.056;8.678;2023-07-28T02:09:56;2.50;;;2.30;;
5412;SDS011;2729;50.056;8.678;2023-07-28T02:12:21;5.03;;;2.93;;
5412;SDS011;2729;50.056;8.678;2023-07-28T02:14:47;2.90;;;2.43;;
5412;SDS011;2729;50.056;8.678;2023-07-28T02:17:14;17.50;;;2.40;;
5412;SDS011;2729;50.056;8.678;2023-07-28T02:19:40;3.33;;;2.50;;
5412;SDS011;2729;50.056;8.678;2023-07-28T02:22:06;4.43;;;2.40;;
5412;SDS011;2729;50.056;8.678;2023-07-28T02:24:31;7.00;;;2.83;;
5412;SDS011;2729;50.056;8.678;2023-07-28T02:26:58;2.20;;;2.00;;
5412;SDS011;2729;50.056;8.678;2023-07-28T02:29:25;2.60;;;2.40;;
5412;SDS011;2729;50.056;8.678;2023-07-28T02:31:51;3.10;;;2.50;;
5412;SDS011;2729;50.056;8.678;2023-07-28T02:34:16;5.20;;;2.53;;
5412;SDS011;2729;50.056;8.678;2023-07-28T02:36:42;2.80;;;2.53;;
5412;SDS011;2729;50.056;8.678;2023-07-28T02:39:08;2.53;;;2.33;;
5412;SDS011;2729;50.056;8.678;2023-07-28T02:41:33;7.97;;;2.30;;
5412;SDS011;2729;50.056;8.678;2023-07-28T02:43:59;2.83;;;2.63;;
5412;SDS011;2729;50.056;8.678;2023-07-28T02:46:25;2.53;;;2.33;;
5412;SDS011;2729;50.056;8.678;2023-07-28T02:48:51;3.70;;;2.27;;
5412;SDS011;2729;50.056;8.678;2023-07-28T02:51:17;1.93;;;1.80;;
5412;SDS011;2729;50.056;8.678;2023-07-28T02:53:43;2.63;;;2.43;;
5412;SDS011;2729;50.056;8.678;2023-07-28T02:56:08;3.13;;;2.80;;
5412;SDS011;2729;50.056;8.678;2023-07-28T02:58:34;2.90;;;2.60;;
5412;SDS011;2729;50.056;8.678;2023-07-28T03:00:59;2.70;;;2.50;;
5412;SDS011;2729;50.056;8.678;2023-07-28T03:03:32;3.07;;;2.83;;
5412;SDS011;2729;50.056;8.678;2023-07-28T03:05:58;3.23;;;2.80;;
5412;SDS011;2729;50.056;8.678;2023-07-28T03:08:25;5.10;;;3.07;;
5412;SDS011;2729;50.056;8.678;2023-07-28T03:10:55;2.67;;;2.47;;
5412;SDS011;2729;50.056;8.678;2023-07-28T03:13:21;3.33;;;2.50;;
5412;SDS011;2729;50.056;8.678;2023-07-28T03:15:50;6.73;;;3.00;;
5412;SDS011;2729;50.056;8.678;2023-07-28T03:18:16;2.17;;;2.00;;
5412;SDS011;2729;50.056;8.678;2023-07-28T03:20:42;4.20;;;2.50;;
5412;SDS011;2729;50.056;8.678;2023-07-28T03:23:08;2.70;;;2.10;;
5412;SDS011;2729;50.056;8.678;2023-07-28T03:25:33;2.87;;;2.50;;
5412;SDS011;2729;50.056;8.678;2023-07-28T03:28:00;3.43;;;2.20;;
5412;SDS011;2729;50.056;8.678;2023-07-28T03:30:26;2.63;;;2.43;;
5412;SDS011;2729;50.056;8.678;2023-07-28T03:32:51;2.73;;;2.30;;
5412;SDS011;2729;50.056;8.678;2023-07-28T03:35:17;2.40;;;2.20;;
5412;SDS011;2729;50.056;8.678;2023-07-28T03:37:49;3.13;;;2.80;;
5412;SDS011;2729;50.056;8.678;2023-07-28T03:40:15;2.20;;;2.10;;
5412;SDS011;2729;50.056;8.678;2023-07-28T03:42:49;4.60;;;2.60;;
5412;SDS011;2729;50.056;8.678;2023-07-28T03:45:15;9.07;;;2.00;;
5412;SDS011;2729;50.056;8.678;2023-07-28T03:47:41;1.97;;;1.87;;
5412;SDS011;2729;50.056;8.678;2023-07-28T03:50:07;2.60;;;2.40;;
5412;SDS011;2729;50.056;8.678;2023-07-28T03:52:33;3.30;;;2.47;;
5412;SDS011;2729;50.056;8.678;2023-07-28T04:01:14;6.10;;;2.30;;
5412;SDS011;2729;50.056;8.678;2023-07-28T04:03:39;3.60;;;2.50;;
5412;SDS011;2729;50.056;8.678;2023-07-28T04:06:09;2.60;;;2.40;;
5412;SDS011;2729;50.056;8.678;2023-07-28T04:08:35;3.70;;;2.67;;
5412;SDS011;2729;50.056;8.678;2023-07-28T04:11:00;2.87;;;2.57;;
5412;SDS011;2729;50.056;8.678;2023-07-28T04:13:26;2.70;;;2.40;;
5412;SDS011;2729;50.056;8.678;2023-07-28T04:15:52;2.40;;;2.20;;
5412;SDS011;2729;50.056;8.678;2023-07-28T04:18:17;4.60;;;2.80;;
5412;SDS011;2729;50.056;8.678;2023-07-28T04:20:45;3.00;;;2.73;;
5412;SDS011;2729;50.056;8.678;2023-07-28T04:23:12;3.30;;;2.53;;
5412;SDS011;2729;50.056;8.678;2023-07-28T04:25:39;3.00;;;2.80;;
5412;SDS011;2729;50.056;8.678;2023-07-28T04:28:05;2.80;;;2.60;;
5412;SDS011;2729;50.056;8.678;2023-07-28T04:30:31;6.30;;;2.33;;
5412;SDS011;2729;50.056;8.678;2023-07-28T04:32:56;3.07;;;2.60;;
5412;SDS011;2729;50.056;8.678;2023-07-28T04:35:27;6.93;;;2.60;;
5412;SDS011;2729;50.056;8.678;2023-07-28T04:38:01;3.17;;;2.10;;
5412;SDS011;2729;50.056;8.678;2023-07-28T04:40:47;2.27;;;2.07;;
5412;SDS011;2729;50.056;8.678;2023-07-28T04:43:15;2.47;;;2.27;;
5412;SDS011;2729;50.056;8.678;2023-07-28T04:45:46;3.40;;;2.43;;
5412;SDS011;2729;50.056;8.678;2023-07-28T04:48:17;2.80;;;2.50;;
5412;SDS011;2729;50.056;8.678;2023-07-28T04:50:44;3.53;;;1.90;;
5412;SDS011;2729;50.056;8.678;2023-07-28T04:53:27;6.43;;;2.60;;
5412;SDS011;2729;50.056;8.678;2023-07-28T04:56:10;2.27;;;2.07;;
5412;SDS011;2729;50.056;8.678;2023-07-28T04:58:35;2.23;;;2.13;;
5412;SDS011;2729;50.056;8.678;2023-07-28T05:01:01;2.23;;;2.03;;
5412;SDS011;2729;50.056;8.678;2023-07-28T05:03:28;2.40;;;2.30;;
5412;SDS011;2729;50.056;8.678;2023-07-28T05:05:57;2.43;;;2.20;;
5412;SDS011;2729;50.056;8.678;2023-07-28T05:08:23;2.67;;;2.47;;
5412;SDS011;2729;50.056;8.678;2023-07-28T05:10:48;2.80;;;1.70;;
5412;SDS011;2729;50.056;8.678;2023-07-28T05:13:14;1.90;;;1.80;;
5412;SDS011;2729;50.056;8.678;2023-07-28T05:15:48;4.20;;;2.30;;
5412;SDS011;2729;50.056;8.678;2023-07-28T05:18:25;4.07;;;2.23;;
5412;SDS011;2729;50.056;8.678;2023-07-28T05:21:03;2.40;;;2.10;;
5412;SDS011;2729;50.056;8.678;2023-07-28T05:23:29;2.90;;;2.70;;
5412;SDS011;2729;50.056;8.678;2023-07-28T05:25:54;3.07;;;2.30;;
5412;SDS011;2729;50.056;8.678;2023-07-28T05:28:22;2.30;;;2.20;;
5412;SDS011;2729;50.056;8.678;2023-07-28T05:30:51;2.40;;;2.17;;
5412;SDS011;2729;50.056;8.678;2023-07-28T05:33:18;2.57;;;2.37;;
5412;SDS011;2729;50.056;8.678;2023-07-28T05:35:47;4.77;;;2.60;;
5412;SDS011;2729;50.056;8.678;2023-07-28T05:38:13;7.03;;;2.83;;
5412;SDS011;2729;50.056;8.678;2023-07-28T05:40:39;2.80;;;2.60;;
5412;SDS011;2729;50.056;8.678;2023-07-28T05:43:06;3.80;;;2.70;;
5412;SDS011;2729;50.056;8.678;2023-07-28T05:45:31;2.43;;;2.33;;
5412;SDS011;2729;50.056;8.678;2023-07-28T05:48:00;2.13;;;2.03;;
5412;SDS011;2729;50.056;8.678;2023-07-28T05:50:25;2.30;;;2.20;;
5412;SDS011;2729;50.056;8.678;2023-07-28T05:52:51;2.40;;;2.23;;
5412;SDS011;2729;50.056;8.678;2023-07-28T05:55:17;2.50;;;2.30;;
5412;SDS011;2729;50.056;8.678;2023-07-28T05:57:42;2.60;;;2.40;;
5412;SDS011;2729;50.056;8.678;2023-07-28T06:00:09;2.47;;;2.27;;
5412;SDS011;2729;50.056;8.678;2023-07-28T06:02:41;2.50;;;2.30;;
5412;SDS011;2729;50.056;8.678;2023-07-28T06:05:11;2.50;;;2.33;;
5412;SDS011;2729;50.056;8.678;2023-07-28T06:07:37;4.00;;;2.60;;
5412;SDS011;2729;50.056;8.678;2023-07-28T06:10:02;4.43;;;2.57;;
5412;SDS011;2729;50.056;8.678;2023-07-28T06:12:28;2.70;;;2.50;;
5412;SDS011;2729;50.056;8.678;2023-07-28T06:14:54;2.67;;;2.47;;
5412;SDS011;2729;50.056;8.678;2023-07-28T06:17:19;4.03;;;2.60;;
5412;SDS011;2729;50.056;8.678;2023-07-28T06:19:46;2.50;;;2.30;;
5412;SDS011;2729;50.056;8.678;2023-07-28T06:22:13;2.27;;;2.17;;
5412;SDS011;2729;50.056;8.678;2023-07-28T06:24:42;3.70;;;1.97;;
5412;SDS011;2729;50.056;8.678;2023-07-28T06:27:07;3.30;;;1.73;;
5412;SDS011;2729;50.056;8.678;2023-07-28T06:32:44;1.90;;;1.80;;
5412;SDS011;2729;50.056;8.678;2023-07-28T06:35:10;2.43;;;2.17;;
5412;SDS011;2729;50.056;8.678;2023-07-28T06:37:36;2.13;;;2.03;;
5412;SDS011;2729;50.056;8.678;2023-07-28T06:40:03;3.10;;;2.00;;
5412;SDS011;2729;50.056;8.678;2023-07-28T06:42:32;1.37;;;1.30;;
5412;SDS011;2729;50.056;8.678;2023-07-28T06:45:00;1.77;;;1.63;;
5412;SDS011;2729;50.056;8.678;2023-07-28T06:47:27;2.20;;;1.77;;
5412;SDS011;2729;50.056;8.678;2023-07-28T06:49:52;1.80;;;1.70;;
5412;SDS011;2729;50.056;8.678;2023-07-28T06:52:18;1.57;;;1.47;;
5412;SDS011;2729;50.056;8.678;2023-07-28T06:54:44;1.70;;;1.60;;
5412;SDS011;2729;50.056;8.678;2023-07-28T06:57:09;1.90;;;1.80;;
5412;SDS011;2729;50.056;8.678;2023-07-28T06:59:35;1.57;;;1.47;;
5412;SDS011;2729;50.056;8.678;2023-07-28T07:02:00;2.30;;;1.40;;
5412;SDS011;2729;50.056;8.678;2023-07-28T07:04:26;1.77;;;1.67;;
5412;SDS011;2729;50.056;8.678;2023-07-28T07:06:52;2.10;;;1.43;;
5412;SDS011;2729;50.056;8.678;2023-07-28T07:09:17;1.93;;;1.67;;
5412;SDS011;2729;50.056;8.678;2023-07-28T07:11:43;1.40;;;1.37;;
5412;SDS011;2729;50.056;8.678;2023-07-28T07:14:09;1.73;;;1.63;;
5412;SDS011;2729;50.056;8.678;2023-07-28T07:16:34;1.57;;;1.47;;
5412;SDS011;2729;50.056;8.678;2023-07-28T07:19:00;1.50;;;1.50;;
5412;SDS011;2729;50.056;8.678;2023-07-28T07:21:27;1.43;;;1.40;;
5412;SDS011;2729;50.056;8.678;2023-07-28T07:23:52;5.13;;;1.63;;
5412;SDS011;2729;50.056;8.678;2023-07-28T07:26:27;1.50;;;1.40;;
5412;SDS011;2729;50.056;8.678;2023-07-28T07:28:52;1.43;;;1.33;;
5412;SDS011;2729;50.056;8.678;2023-07-28T07:31:18;1.03;;;0.97;;
5412;SDS011;2729;50.056;8.678;2023-07-28T07:33:45;4.73;;;1.10;;
5412;SDS011;2729;50.056;8.678;2023-07-28T07:36:12;1.00;;;1.00;;
5412;SDS011;2729;50.056;8.678;2023-07-28T07:38:37;1.27;;;1.00;;
5412;SDS011;2729;50.056;8.678;2023-07-28T07:41:03;5.63;;;1.30;;
5412;SDS011;2729;50.056;8.678;2023-07-28T07:46:27;1.03;;;1.03;;
5412;SDS011;2729;50.056;8.678;2023-07-28T07:48:53;1.33;;;1.33;;
5412;SDS011;2729;50.056;8.678;2023-07-28T07:51:18;1.00;;;1.00;;
5412;SDS011;2729;50.056;8.678;2023-07-28T07:53:44;1.00;;;1.00;;
5412;SDS011;2729;50.056;8.678;2023-07-28T07:56:10;2.10;;;1.20;;
5412;SDS011;2729;50.056;8.678;2023-07-28T07:58:36;1.03;;;1.00;;
5412;SDS011;2729;50.056;8.678;2023-07-28T08:01:02;0.87;;;0.87;;
5412;SDS011;2729;50.056;8.678;2023-07-28T08:03:27;1.00;;;0.90;;
5412;SDS011;2729;50.056;8.678;2023-07-28T08:05:53;1.13;;;1.03;;
5412;SDS011;2729;50.056;8.678;2023-07-28T08:08:19;1.43;;;1.20;;
5412;SDS011;2729;50.056;8.678;2023-07-28T08:10:45;1.57;;;1.20;;
5412;SDS011;2729;50.056;8.678;2023-07-28T08:13:11;1.00;;;1.00;;
5412;SDS011;2729;50.056;8.678;2023-07-28T08:15:36;0.90;;;0.90;;
5412;SDS011;2729;50.056;8.678;2023-07-28T08:18:02;1.07;;;1.07;;
5412;SDS011;2729;50.056;8.678;2023-07-28T08:20:28;2.20;;;0.87;;
5412;SDS011;2729;50.056;8.678;2023-07-28T08:22:53;0.90;;;0.90;;
5412;SDS011;2729;50.056;8.678;2023-07-28T08:25:19;0.80;;;0.80;;
5412;SDS011;2729;50.056;8.678;2023-07-28T08:27:45;0.90;;;0.90;;
5412;SDS011;2729;50.056;8.678;2023-07-28T08:30:10;1.07;;;0.80;;
5412;SDS011;2729;50.056;8.678;2023-07-28T08:32:36;0.87;;;0.87;;
5412;SDS011;2729;50.056;8.678;2023-07-28T08:35:02;0.77;;;0.77;;
5412;SDS011;2729;50.056;8.678;2023-07-28T08:37:28;1.30;;;0.90;;
5412;SDS011;2729;50.056;8.678;2023-07-28T08:39:55;1.00;;;1.00;;
5412;SDS011;2729;50.056;8.678;2023-07-28T08:42:21;1.23;;;0.80;;
5412;SDS011;2729;50.056;8.678;2023-07-28T08:44:47;0.90;;;0.90;;
5412;SDS011;2729;50.056;8.678;2023-07-28T08:47:13;1.00;;;0.90;;
5412;SDS011;2729;50.056;8.678;2023-07-28T08:49:39;0.80;;;0.80;;
5412;SDS011;2729;50.056;8.678;2023-07-28T08:52:05;1.17;;;1.17;;
5412;SDS011;2729;50.056;8.678;2023-07-28T08:54:31;0.80;;;0.80;;
5412;SDS011;2729;50.056;8.678;2023-07-28T08:56:57;0.93;;;0.93;;
5412;SDS011;2729;50.056;8.678;2023-07-28T08:59:28;0.77;;;0.77;;
5412;SDS011;2729;50.056;8.678;2023-07-28T09:01:54;3.20;;;0.93;;
5412;SDS011;2729;50.056;8.678;2023-07-28T09:04:20;1.47;;;0.80;;
5412;SDS011;2729;50.056;8.678;2023-07-28T09:06:48;1.00;;;1.00;;
5412;SDS011;2729;50.056;8.678;2023-07-28T09:09:18;0.90;;;0.90;;
5412;SDS011;2729;50.056;8.678;2023-07-28T09:11:46;0.90;;;0.90;;
5412;SDS011;2729;50.056;8.678;2023-07-28T09:14:12;0.90;;;0.90;;
5412;SDS011;2729;50.056;8.678;2023-07-28T09:16:38;0.70;;;0.70;;
5412;SDS011;2729;50.056;8.678;2023-07-28T09:19:07;0.90;;;0.90;;
5412;SDS011;2729;50.056;8.678;2023-07-28T09:21:33;0.87;;;0.83;;
5412;SDS011;2729;50.056;8.678;2023-07-28T09:24:05;0.90;;;0.90;;
5412;SDS011;2729;50.056;8.678;2023-07-28T09:26:38;1.77;;;1.00;;
5412;SDS011;2729;50.056;8.678;2023-07-28T09:29:12;0.83;;;0.83;;
5412;SDS011;2729;50.056;8.678;2023-07-28T09:31:37;0.80;;;0.80;;
5412;SDS011;2729;50.056;8.678;2023-07-28T09:34:06;0.80;;;0.80;;
5412;SDS011;2729;50.056;8.678;2023-07-28T09:36:32;0.70;;;0.70;;
5412;SDS011;2729;50.056;8.678;2023-07-28T09:38:58;0.90;;;0.90;;
5412;SDS011;2729;50.056;8.678;2023-07-28T09:41:24;1.03;;;0.93;;
5412;SDS011;2729;50.056;8.678;2023-07-28T09:43:50;1.60;;;1.00;;
5412;SDS011;2729;50.056;8.678;2023-07-28T09:46:17;0.90;;;0.90;;
5412;SDS011;2729;50.056;8.678;2023-07-28T09:48:44;1.10;;;1.10;;
5412;SDS011;2729;50.056;8.678;2023-07-28T09:51:17;0.70;;;0.70;;
5412;SDS011;2729;50.056;8.678;2023-07-28T09:54:04;0.90;;;0.90;;
5412;SDS011;2729;50.056;8.678;2023-07-28T09:56:30;0.97;;;0.97;;
5412;SDS011;2729;50.056;8.678;2023-07-28T09:58:56;0.90;;;0.90;;
5412;SDS011;2729;50.056;8.678;2023-07-28T10:01:23;0.80;;;0.80;;
5412;SDS011;2729;50.056;8.678;2023-07-28T10:03:48;0.93;;;0.83;;
5412;SDS011;2729;50.056;8.678;2023-07-28T10:06:14;0.83;;;0.83;;
5412;SDS011;2729;50.056;8.678;2023-07-28T10:08:42;0.90;;;0.90;;
5412;SDS011;2729;50.056;8.678;2023-07-28T10:11:09;3.03;;;0.90;;
5412;SDS011;2729;50.056;8.678;2023-07-28T10:13:41;0.80;;;0.80;;
5412;SDS011;2729;50.056;8.678;2023-07-28T10:16:11;0.77;;;0.77;;
5412;SDS011;2729;50.056;8.678;2023-07-28T10:18:40;3.17;;;1.00;;
5412;SDS011;2729;50.056;8.678;2023-07-28T10:21:07;3.80;;;1.07;;
5412;SDS011;2729;50.056;8.678;2023-07-28T10:23:34;0.87;;;0.87;;
5412;SDS011;2729;50.056;8.678;2023-07-28T10:26:03;0.87;;;0.87;;
5412;SDS011;2729;50.056;8.678;2023-07-28T10:28:31;0.80;;;0.80;;
5412;SDS011;2729;50.056;8.678;2023-07-28T10:31:00;1.10;;;1.00;;
5412;SDS011;2729;50.056;8.678;2023-07-28T10:33:28;1.00;;;1.00;;
5412;SDS011;2729;50.056;8.678;2023-07-28T10:35:54;0.90;;;0.90;;
5412;SDS011;2729;50.056;8.678;2023-07-28T10:38:30;0.87;;;0.87;;
5412;SDS011;2729;50.056;8.678;2023-07-28T10:43:52;1.00;;;1.00;;
5412;SDS011;2729;50.056;8.678;2023-07-28T10:46:20;1.63;;;0.90;;
5412;SDS011;2729;50.056;8.678;2023-07-28T10:48:47;0.83;;;0.83;;
5412;SDS011;2729;50.056;8.678;2023-07-28T10:51:20;1.27;;;0.90;;
5412;SDS011;2729;50.056;8.678;2023-07-28T10:53:49;2.00;;;1.60;;
5412;SDS011;2729;50.056;8.678;2023-07-28T10:56:14;0.80;;;0.80;;
5412;SDS011;2729;50.056;8.678;2023-07-28T10:58:40;2.33;;;1.00;;
5412;SDS011;2729;50.056;8.678;2023-07-28T11:01:06;2.80;;;1.27;;
5412;SDS011;2729;50.056;8.678;2023-07-28T11:03:32;1.23;;;1.13;;
5412;SDS011;2729;50.056;8.678;2023-07-28T11:05:58;1.37;;;1.27;;
5412;SDS011;2729;50.056;8.678;2023-07-28T11:08:25;1.20;;;1.03;;
5412;SDS011;2729;50.056;8.678;2023-07-28T11:10:50;2.40;;;1.00;;
5412;SDS011;2729;50.056;8.678;2023-07-28T11:13:16;22.97;;;1.80;;
5412;SDS011;2729;50.056;8.678;2023-07-28T11:15:41;1.10;;;1.10;;
5412;SDS011;2729;50.056;8.678;2023-07-28T11:18:07;3.03;;;1.27;;
5412;SDS011;2729;50.056;8.678;2023-07-28T11:20:35;1.63;;;1.43;;
5412;SDS011;2729;50.056;8.678;2023-07-28T11:23:04;1.77;;;1.30;;
5412;SDS011;2729;50.056;8.678;2023-07-28T11:25:30;1.00;;;1.00;;
5412;SDS011;2729;50.056;8.678;2023-07-28T11:27:56;1.40;;;1.30;;
5412;SDS011;2729;50.056;8.678;2023-07-28T11:30:23;1.40;;;0.93;;
5412;SDS011;2729;50.056;8.678;2023-07-28T11:32:50;2.80;;;1.40;;
5412;SDS011;2729;50.056;8.678;2023-07-28T11:35:16;1.60;;;1.50;;
5412;SDS011;2729;50.056;8.678;2023-07-28T11:37:43;1.33;;;1.20;;
5412;SDS011;2729;50.056;8.678;2023-07-28T11:40:09;1.50;;;1.40;;
5412;SDS011;2729;50.056;8.678;2023-07-28T11:42:38;6.87;;;1.63;;
5412;SDS011;2729;50.056;8.678;2023-07-28T11:45:04;3.43;;;1.40;;
5412;SDS011;2729;50.056;8.678;2023-07-28T11:47:31;2.10;;;1.60;;
5412;SDS011;2729;50.056;8.678;2023-07-28T11:49:57;2.53;;;1.67;;
5412;SDS011;2729;50.056;8.678;2023-07-28T11:52:30;3.00;;;1.70;;
5412;SDS011;2729;50.056;8.678;2023-07-28T11:54:56;2.00;;;1.70;;
5412;SDS011;2729;50.056;8.678;2023-07-28T11:57:21;2.90;;;1.83;;
5412;SDS011;2729;50.056;8.678;2023-07-28T11:59:47;1.87;;;1.77;;
5412;SDS011;2729;50.056;8.678;2023-07-28T12:02:13;2.27;;;2.03;;
5412;SDS011;2729;50.056;8.678;2023-07-28T12:04:39;1.80;;;1.70;;
5412;SDS011;2729;50.056;8.678;2023-07-28T12:07:16;1.70;;;1.60;;
5412;SDS011;2729;50.056;8.678;2023-07-28T12:12:28;3.77;;;2.07;;
5412;SDS011;2729;50.056;8.678;2023-07-28T12:14:55;11.43;;;2.70;;
5412;SDS011;2729;50.056;8.678;2023-07-28T12:17:22;2.43;;;2.30;;
5412;SDS011;2729;50.056;8.678;2023-07-28T12:19:57;3.80;;;2.37;;
5412;SDS011;2729;50.056;8.678;2023-07-28T12:22:24;5.00;;;2.77;;
5412;SDS011;2729;50.056;8.678;2023-07-28T12:24:49;3.30;;;2.00;;
5412;SDS011;2729;50.056;8.678;2023-07-28T12:27:15;4.13;;;2.17;;
5412;SDS011;2729;50.056;8.678;2023-07-28T12:29:41;2.20;;;1.97;;
5412;SDS011;2729;50.056;8.678;2023-07-28T12:32:07;1.90;;;1.80;;
5412;SDS011;2729;50.056;8.678;2023-07-28T12:34:34;2.10;;;2.00;;
5412;SDS011;2729;50.056;8.678;2023-07-28T12:37:00;2.13;;;2.03;;
5412;SDS011;2729;50.056;8.678;2023-07-28T12:39:25;9.90;;;4.37;;
5412;SDS011;2729;50.056;8.678;2023-07-28T12:41:51;2.57;;;2.37;;
5412;SDS011;2729;50.056;8.678;2023-07-28T12:44:20;3.27;;;2.87;;
5412;SDS011;2729;50.056;8.678;2023-07-28T12:46:45;7.37;;;4.10;;
5412;SDS011;2729;50.056;8.678;2023-07-28T12:49:11;2.60;;;2.40;;
5412;SDS011;2729;50.056;8.678;2023-07-28T12:51:37;2.83;;;2.63;;
5412;SDS011;2729;50.056;8.678;2023-07-28T12:54:02;3.00;;;2.40;;
5412;SDS011;2729;50.056;8.678;2023-07-28T12:56:28;2.30;;;2.00;;
5412;SDS011;2729;50.056;8.678;2023-07-28T12:58:54;3.37;;;2.33;;
5412;SDS011;2729;50.056;8.678;2023-07-28T13:01:19;2.77;;;2.33;;
5412;SDS011;2729;50.056;8.678;2023-07-28T13:03:45;3.40;;;2.60;;
5412;SDS011;2729;50.056;8.678;2023-07-28T13:06:11;2.50;;;2.07;;
5412;SDS011;2729;50.056;8.678;2023-07-28T13:08:37;4.23;;;2.23;;
5412;SDS011;2729;50.056;8.678;2023-07-28T13:11:02;5.53;;;2.30;;
5412;SDS011;2729;50.056;8.678;2023-07-28T13:13:28;2.43;;;2.23;;
5412;SDS011;2729;50.056;8.678;2023-07-28T13:15:55;3.80;;;2.07;;
5412;SDS011;2729;50.056;8.678;2023-07-28T13:18:22;3.97;;;2.20;;
5412;SDS011;2729;50.056;8.678;2023-07-28T13:20:50;8.73;;;2.53;;
5412;SDS011;2729;50.056;8.678;2023-07-28T13:23:15;3.47;;;2.40;;
5412;SDS011;2729;50.056;8.678;2023-07-28T13:25:41;2.57;;;2.00;;
5412;SDS011;2729;50.056;8.678;2023-07-28T13:28:06;4.43;;;2.30;;
5412;SDS011;2729;50.056;8.678;2023-07-28T13:30:33;2.47;;;2.27;;
5412;SDS011;2729;50.056;8.678;2023-07-28T13:32:59;2.77;;;2.43;;
5412;SDS011;2729;50.056;8.678;2023-07-28T13:35:24;2.80;;;2.23;;
5412;SDS011;2729;50.056;8.678;2023-07-28T13:37:50;3.37;;;2.67;;
5412;SDS011;2729;50.056;8.678;2023-07-28T13:40:23;2.80;;;2.17;;
5412;SDS011;2729;50.056;8.678;2023-07-28T13:42:49;2.20;;;2.10;;
5412;SDS011;2729;50.056;8.678;2023-07-28T13:45:16;2.83;;;1.87;;
5412;SDS011;2729;50.056;8.678;2023-07-28T13:47:45;1.83;;;1.73;;
5412;SDS011;2729;50.056;8.678;2023-07-28T13:50:10;2.17;;;2.00;;
5412;SDS011;2729;50.056;8.678;2023-07-28T13:52:36;1.57;;;1.57;;
5412;SDS011;2729;50.056;8.678;2023-07-28T13:55:02;2.30;;;2.20;;
5412;SDS011;2729;50.056;8.678;2023-07-28T13:57:31;1.70;;;1.60;;
5412;SDS011;2729;50.056;8.678;2023-07-28T13:59:57;2.03;;;1.93;;
5412;SDS011;2729;50.056;8.678;2023-07-28T14:02:22;1.80;;;1.70;;
5412;SDS011;2729;50.056;8.678;2023-07-28T14:04:48;2.30;;;2.13;;
5412;SDS011;2729;50.056;8.678;2023-07-28T14:07:15;2.07;;;1.97;;
5412;SDS011;2729;50.056;8.678;2023-07-28T14:09:41;2.27;;;2.07;;
5412;SDS011;2729;50.056;8.678;2023-07-28T14:12:09;3.53;;;2.63;;
5412;SDS011;2729;50.056;8.678;2023-07-28T14:14:35;1.90;;;1.80;;
5412;SDS011;2729;50.056;8.678;2023-07-28T14:17:01;10.60;;;2.10;;
5412;SDS011;2729;50.056;8.678;2023-07-28T14:19:26;1.60;;;1.50;;
5412;SDS011;2729;50.056;8.678;2023-07-28T14:21:52;3.20;;;2.00;;
5412;SDS011;2729;50.056;8.678;2023-07-28T14:24:17;2.40;;;1.80;;
5412;SDS011;2729;50.056;8.678;2023-07-28T14:26:44;2.23;;;2.03;;
5412;SDS011;2729;50.056;8.678;2023-07-28T14:29:10;2.20;;;1.60;;
5412;SDS011;2729;50.056;8.678;2023-07-28T14:31:36;2.23;;;2.03;;
5412;SDS011;2729;50.056;8.678;2023-07-28T14:34:02;1.83;;;1.70;;
5412;SDS011;2729;50.056;8.678;2023-07-28T14:36:27;2.37;;;2.17;;
5412;SDS011;2729;50.056;8.678;2023-07-28T14:38:53;2.97;;;2.00;;
5412;SDS011;2729;50.056;8.678;2023-07-28T14:41:18;1.53;;;1.53;;
5412;SDS011;2729;50.056;8.678;2023-07-28T14:43:44;2.13;;;1.93;;
5412;SDS011;2729;50.056;8.678;2023-07-28T14:46:10;2.30;;;2.10;;
5412;SDS011;2729;50.056;8.678;2023-07-28T14:48:36;2.03;;;1.93;;
5412;SDS011;2729;50.056;8.678;2023-07-28T14:51:02;2.00;;;1.80;;
5412;SDS011;2729;50.056;8.678;2023-07-28T14:53:36;1.43;;;1.33;;
5412;SDS011;2729;50.056;8.678;2023-07-28T14:56:03;1.93;;;1.80;;
5412;SDS011;2729;50.056;8.678;2023-07-28T14:58:29;2.50;;;1.80;;
5412;SDS011;2729;50.056;8.678;2023-07-28T15:00:55;1.90;;;1.80;;
5412;SDS011;2729;50.056;8.678;2023-07-28T15:03:21;1.63;;;1.53;;
5412;SDS011;2729;50.056;8.678;2023-07-28T15:05:52;2.27;;;2.10;;
5412;SDS011;2729;50.056;8.678;2023-07-28T15:08:27;1.57;;;1.47;;
5412;SDS011;2729;50.056;8.678;2023-07-28T15:10:55;3.33;;;1.63;;
5412;SDS011;2729;50.056;8.678;2023-07-28T15:13:21;1.60;;;1.50;;
5412;SDS011;2729;50.056;8.678;2023-07-28T15:15:46;2.10;;;1.83;;
5412;SDS011;2729;50.056;8.678;2023-07-28T15:18:12;1.93;;;1.80;;
5412;SDS011;2729;50.056;8.678;2023-07-28T15:20:39;4.43;;;2.00;;
5412;SDS011;2729;50.056;8.678;2023-07-28T15:23:05;1.47;;;1.47;;
5412;SDS011;2729;50.056;8.678;2023-07-28T15:25:31;1.87;;;1.70;;
5412;SDS011;2729;50.056;8.678;2023-07-28T15:27:56;1.63;;;1.63;;
5412;SDS011;2729;50.056;8.678;2023-07-28T15:30:22;1.77;;;1.67;;
5412;SDS011;2729;50.056;8.678;2023-07-28T15:32:47;1.57;;;1.47;;
5412;SDS011;2729;50.056;8.678;2023-07-28T15:35:14;1.50;;;1.40;;